createdAt,value
2018-12-15T00:01:27.882Z,27.07
2018-12-15T00:03:35.692Z,30.05
2018-12-15T00:05:41.972Z,28.12
2018-12-15T00:07:49.767Z,27.55
2018-12-15T00:09:57.528Z,28.57
2018-12-15T00:12:09.490Z,28.80
2018-12-15T00:14:14.708Z,28.57
2018-12-15T00:16:20.180Z,28.77
2018-12-15T00:18:26.675Z,28.27
2018-12-15T00:20:31.143Z,27.37
2018-12-15T00:22:35.848Z,27.48
2018-12-15T00:24:41.615Z,28.57
2018-12-15T00:26:49.727Z,28.23
2018-12-15T00:28:54.754Z,26.10
2018-12-15T00:31:03.741Z,28.80
2018-12-15T00:33:15.764Z,30.25
2018-12-15T00:35:18.784Z,30.02
2018-12-15T00:37:23.708Z,29.00
2018-12-15T00:39:26.980Z,27.62
2018-12-15T00:41:34.519Z,26.50
2018-12-15T00:43:39.348Z,30.40
2018-12-15T00:45:47.861Z,29.57
2018-12-15T00:47:52.773Z,26.65
2018-12-15T00:49:57.484Z,26.35
2018-12-15T00:52:10.449Z,26.90
2018-12-15T00:54:15.348Z,27.58
2018-12-15T00:56:20.232Z,26.60
2018-12-15T00:58:25.640Z,25.50
2018-12-15T01:00:34.120Z,27.65
2018-12-15T01:02:41.857Z,25.40
2018-12-15T01:04:49.574Z,27.85
2018-12-15T01:06:57.534Z,29.15
2018-12-15T01:09:03.798Z,27.32
2018-12-15T01:11:15.294Z,29.27
2018-12-15T01:13:21.060Z,25.90
2018-12-15T01:17:35.159Z,26.57
2018-12-15T01:19:47.636Z,27.85
2018-12-15T01:21:51.483Z,27.58
2018-12-15T01:23:57.329Z,26.70
2018-12-15T01:26:01.832Z,25.70
2018-12-15T01:28:09.301Z,27.05
2018-12-15T01:30:14.286Z,25.37
2018-12-15T01:32:22.185Z,25.55
2018-12-15T01:34:30.404Z,26.40
2018-12-15T01:36:42.057Z,26.75
2018-12-15T01:38:53.852Z,22.58
2018-12-15T01:40:59.719Z,25.15
2018-12-15T01:43:05.116Z,25.85
2018-12-15T01:45:09.896Z,26.17
2018-12-15T01:47:18.508Z,25.27
2018-12-15T01:49:23.023Z,27.77
2018-12-15T01:51:30.491Z,26.82
2018-12-15T01:53:38.930Z,25.12
2018-12-15T01:55:44.469Z,22.65
2018-12-15T01:57:49.240Z,23.27
2018-12-15T01:59:56.917Z,23.38
2018-12-15T02:02:01.957Z,24.10
2018-12-15T02:04:09.576Z,24.32
2018-12-15T02:06:12.374Z,23.95
2018-12-15T02:08:16.788Z,25.82
2018-12-15T02:10:24.408Z,21.87
2018-12-15T02:12:32.607Z,24.57
2018-12-15T02:14:37.078Z,20.15
2018-12-15T02:18:48.866Z,23.00
2018-12-15T02:20:53.936Z,22.48
2018-12-15T02:22:59.642Z,23.22
2018-12-15T02:25:07.287Z,21.60
2018-12-15T02:27:14.345Z,24.30
2018-12-15T02:29:18.744Z,22.10
2018-12-15T02:31:23.573Z,22.15
2018-12-15T02:33:29.366Z,23.55
2018-12-15T02:35:33.845Z,22.15
2018-12-15T02:37:38.475Z,22.70
2018-12-15T02:39:43.200Z,20.80
2018-12-15T02:42:09.643Z,20.12
2018-12-15T02:44:17.554Z,20.45
2018-12-15T02:46:22.346Z,22.05
2018-12-15T02:48:23.665Z,21.23
2018-12-15T02:50:52.491Z,23.35
2018-12-15T02:53:00.251Z,20.40
2018-12-15T02:55:05.028Z,20.52
2018-12-15T02:57:12.540Z,21.48
2018-12-15T02:59:20.867Z,20.77
2018-12-15T03:01:28.481Z,19.12
2018-12-15T03:03:33.575Z,21.33
2018-12-15T03:05:38.710Z,19.85
2018-12-15T03:07:46.953Z,19.35
2018-12-15T03:09:52.016Z,17.73
2018-12-15T03:11:56.823Z,18.80
2018-12-15T03:14:04.554Z,18.98
2018-12-15T03:16:12.380Z,21.15
2018-12-15T03:18:20.521Z,21.40
2018-12-15T03:26:42.795Z,18.27
2018-12-15T03:30:56.440Z,18.45
2018-12-15T03:33:09.151Z,18.07
2018-12-15T03:35:14.297Z,16.95
2018-12-15T03:37:22.326Z,18.45
2018-12-15T03:39:27.910Z,16.32
2018-12-15T03:41:32.755Z,17.23
2018-12-15T03:43:40.515Z,16.75
2018-12-15T03:45:48.429Z,18.50
2018-12-15T03:48:00.143Z,17.82
2018-12-15T03:50:09.277Z,16.42
2018-12-15T03:52:17.301Z,13.65
2018-12-15T03:54:25.029Z,16.40
2018-12-15T03:56:33.137Z,15.38
2018-12-15T03:58:41.071Z,17.07
2018-12-15T04:00:50.700Z,13.65
2018-12-15T04:02:58.467Z,15.05
2018-12-15T04:05:06.723Z,13.98
2018-12-15T04:07:15.196Z,13.43
2018-12-15T04:09:23.007Z,12.93
2018-12-15T04:11:30.868Z,13.48
2018-12-15T04:13:35.595Z,14.07
2018-12-15T04:15:41.375Z,13.18
2018-12-15T04:17:50.018Z,13.50
2018-12-15T04:19:58.494Z,13.75
2018-12-15T04:22:15.365Z,13.53
2018-12-15T04:24:27.767Z,14.25
2018-12-15T04:26:32.668Z,13.08
2018-12-15T04:28:37.478Z,12.95
2018-12-15T04:30:42.267Z,12.82
2018-12-15T04:32:47.057Z,12.40
2018-12-15T04:36:58.699Z,12.10
2018-12-15T04:39:07.413Z,11.20
2018-12-15T04:41:12.524Z,13.83
2018-12-15T04:43:22.295Z,11.30
2018-12-15T04:45:30.222Z,11.25
2018-12-15T04:47:38.042Z,10.93
2018-12-15T04:49:46.017Z,11.30
2018-12-15T04:51:50.871Z,11.15
2018-12-15T04:53:59.735Z,10.95
2018-12-15T04:56:04.711Z,11.75
2018-12-15T04:58:13.523Z,10.95
2018-12-15T05:00:21.607Z,11.00
2018-12-15T05:02:27.201Z,11.33
2018-12-15T05:04:32.148Z,50.38
2018-12-15T05:06:35.191Z,50.33
2018-12-15T05:08:43.639Z,22.67
2018-12-15T05:10:48.625Z,25.65
2018-12-15T05:12:53.396Z,21.82
2018-12-15T05:15:01.551Z,18.67
2018-12-15T05:17:16.324Z,12.98
2018-12-15T05:19:21.640Z,13.28
2018-12-15T05:21:29.537Z,12.68
2018-12-15T05:23:37.673Z,12.55
2018-12-15T05:25:46.508Z,13.40
2018-12-15T05:27:51.492Z,11.88
2018-12-15T05:30:04.017Z,10.85
2018-12-15T05:32:11.978Z,11.22
2018-12-15T05:34:19.875Z,13.00
2018-12-15T05:36:24.812Z,12.13
2018-12-15T05:38:32.495Z,9.63
2018-12-15T05:40:40.530Z,11.12
2018-12-15T05:42:45.982Z,11.75
2018-12-15T05:44:49.287Z,10.85
2018-12-15T05:46:54.133Z,10.50
2018-12-15T05:48:59.054Z,11.57
2018-12-15T05:51:06.740Z,10.70
2018-12-15T05:53:11.719Z,10.65
2018-12-15T05:55:16.917Z,10.65
2018-12-15T05:57:21.826Z,10.40
2018-12-15T05:59:29.695Z,10.98
2018-12-15T06:01:37.752Z,12.15
2018-12-15T06:03:43.748Z,11.18
2018-12-15T06:05:51.736Z,11.22
2018-12-15T06:07:59.887Z,11.97
2018-12-15T06:10:05.221Z,12.78
2018-12-15T06:12:08.603Z,10.93
2018-12-15T06:14:13.955Z,11.75
2018-12-15T06:16:18.865Z,11.90
2018-12-15T06:18:23.615Z,11.43
2018-12-15T06:20:28.689Z,11.00
2018-12-15T06:22:37.000Z,13.05
2018-12-15T06:24:42.120Z,10.20
2018-12-15T06:26:46.991Z,12.65
2018-12-15T06:28:51.875Z,11.78
2018-12-15T06:30:59.671Z,10.75
2018-12-15T06:33:07.905Z,11.68
2018-12-15T06:35:15.701Z,12.28
2018-12-15T06:37:25.844Z,11.00
2018-12-15T06:39:30.807Z,13.00
2018-12-15T06:41:35.823Z,11.55
2018-12-15T06:43:43.676Z,12.58
2018-12-15T06:45:48.291Z,14.25
2018-12-15T06:47:53.300Z,10.50
2018-12-15T06:49:58.111Z,12.78
2018-12-15T06:52:06.053Z,11.75
2018-12-15T06:54:13.759Z,11.45
2018-12-15T06:56:23.731Z,10.75
2018-12-15T06:58:26.969Z,12.43
2018-12-15T07:00:34.739Z,11.75
2018-12-15T07:02:42.652Z,10.80
2018-12-15T07:04:47.559Z,10.32
2018-12-15T07:06:55.342Z,12.65
2018-12-15T07:09:05.364Z,11.57
2018-12-15T07:11:13.253Z,12.35
2018-12-15T07:13:21.195Z,12.45
2018-12-15T07:15:28.910Z,11.83
2018-12-15T07:17:37.412Z,11.97
2018-12-15T07:19:45.855Z,13.20
2018-12-15T07:21:53.342Z,11.80
2018-12-15T07:23:58.057Z,12.25
2018-12-15T07:26:05.686Z,12.55
2018-12-15T07:28:13.464Z,12.50
2018-12-15T07:30:21.632Z,10.85
2018-12-15T07:32:29.920Z,12.18
2018-12-15T07:34:37.584Z,11.93
2018-12-15T07:36:42.299Z,13.20
2018-12-15T07:38:54.379Z,12.53
2018-12-15T07:40:59.216Z,11.35
2018-12-15T07:43:06.719Z,12.93
2018-12-15T07:45:11.944Z,11.63
2018-12-15T07:47:19.553Z,11.97
2018-12-15T07:49:31.523Z,12.60
2018-12-15T07:51:36.620Z,13.50
2018-12-15T07:53:44.878Z,16.52
2018-12-15T07:55:54.684Z,13.05
2018-12-15T07:57:58.702Z,19.80
2018-12-15T08:00:08.663Z,19.02
2018-12-15T08:02:18.147Z,17.60
2018-12-15T08:04:21.356Z,17.70
2018-12-15T08:06:22.718Z,17.55
2018-12-15T08:08:30.103Z,15.08
2018-12-15T08:10:43.901Z,12.60
2018-12-15T08:12:51.685Z,13.35
2018-12-15T08:15:03.734Z,12.63
2018-12-15T08:17:08.515Z,13.08
2018-12-15T08:19:16.282Z,12.47
2018-12-15T08:21:31.088Z,11.95
2018-12-15T08:23:35.825Z,12.60
2018-12-15T08:25:51.603Z,12.53
2018-12-15T08:27:59.414Z,12.25
2018-12-15T08:30:08.556Z,13.13
2018-12-15T08:32:16.351Z,14.50
2018-12-15T08:34:24.066Z,12.50
2018-12-15T08:36:28.866Z,11.75
2018-12-15T08:38:36.573Z,12.80
2018-12-15T08:40:44.578Z,12.65
2018-12-15T08:42:49.651Z,15.38
2018-12-15T08:44:57.511Z,11.65
2018-12-15T08:47:02.809Z,13.25
2018-12-15T08:49:07.436Z,13.88
2018-12-15T08:51:15.131Z,12.90
2018-12-15T08:53:22.588Z,13.45
2018-12-15T08:55:25.787Z,13.30
2018-12-15T08:57:30.520Z,12.85
2018-12-15T08:59:35.262Z,13.95
2018-12-15T09:01:40.145Z,13.80
2018-12-15T09:03:57.163Z,13.45
2018-12-15T09:06:02.764Z,13.03
2018-12-15T09:08:07.209Z,14.53
2018-12-15T09:10:11.899Z,13.00
2018-12-15T09:12:17.194Z,14.60
2018-12-15T09:14:24.680Z,14.00
2018-12-15T09:16:30.027Z,13.40
2018-12-15T09:18:34.658Z,13.80
2018-12-15T09:20:37.973Z,13.83
2018-12-15T09:22:45.419Z,13.43
2018-12-15T09:24:48.711Z,14.73
2018-12-15T09:26:49.995Z,15.15
2018-12-15T09:28:51.376Z,13.00
2018-12-15T09:30:52.777Z,14.00
2018-12-15T09:32:55.335Z,13.95
2018-12-15T09:34:56.951Z,14.50
2018-12-15T09:36:58.399Z,14.40
2018-12-15T09:38:59.767Z,15.08
2018-12-15T09:41:01.145Z,14.87
2018-12-15T09:43:02.525Z,14.83
2018-12-15T09:45:04.200Z,13.78
2018-12-15T09:47:25.566Z,14.13
2018-12-15T09:49:26.979Z,13.93
2018-12-15T09:51:28.361Z,13.18
2018-12-15T09:53:29.750Z,14.45
2018-12-15T09:55:31.151Z,14.25
2018-12-15T09:57:36.175Z,13.80
2018-12-15T09:59:37.527Z,15.30
2018-12-15T10:02:08.368Z,79.30
2018-12-15T10:04:11.206Z,100.92
2018-12-15T10:06:15.596Z,42.90
2018-12-15T10:08:20.291Z,15.28
2018-12-15T10:10:21.826Z,15.58
2018-12-15T10:12:36.921Z,16.20
2018-12-15T10:14:48.801Z,15.40
2018-12-15T10:16:54.063Z,15.00
2018-12-15T10:18:59.828Z,15.98
2018-12-15T10:21:18.187Z,16.57
2018-12-15T10:23:25.720Z,15.78
2018-12-15T10:25:33.431Z,16.42
2018-12-15T10:27:37.938Z,15.83
2018-12-15T10:30:05.535Z,16.12
2018-12-15T10:32:13.015Z,13.83
2018-12-15T10:34:17.483Z,15.25
2018-12-15T10:36:21.862Z,15.37
2018-12-15T10:38:26.677Z,14.93
2018-12-15T10:40:34.476Z,15.85
2018-12-15T10:42:42.815Z,14.78
2018-12-15T10:44:46.136Z,13.75
2018-12-15T10:48:59.300Z,15.10
2018-12-15T10:51:07.329Z,15.50
2018-12-15T10:53:12.751Z,17.92
2018-12-15T10:55:15.453Z,18.42
2018-12-15T10:57:18.390Z,20.72
2018-12-15T10:59:27.081Z,29.60
2018-12-15T11:01:32.400Z,17.20
2018-12-15T11:03:37.145Z,16.97
2018-12-15T11:05:44.796Z,15.30
2018-12-15T11:07:47.844Z,16.70
2018-12-15T11:09:52.523Z,19.87
2018-12-15T11:12:04.503Z,15.28
2018-12-15T11:14:12.529Z,17.15
2018-12-15T11:16:20.126Z,16.55
2018-12-15T11:18:23.099Z,16.27
2018-12-15T11:20:31.087Z,17.23
2018-12-15T11:22:39.236Z,17.67
2018-12-15T11:24:47.227Z,15.88
2018-12-15T11:26:54.983Z,18.77
2018-12-15T11:29:02.977Z,18.52
2018-12-15T11:31:11.824Z,16.93
2018-12-15T11:33:16.951Z,18.73
2018-12-15T11:35:24.864Z,17.92
2018-12-15T11:37:29.799Z,15.03
2018-12-15T11:39:34.651Z,16.55
2018-12-15T11:41:42.332Z,18.45
2018-12-15T11:43:50.336Z,17.75
2018-12-15T11:45:58.072Z,15.78
2018-12-15T11:48:05.946Z,15.23
2018-12-15T11:50:13.980Z,17.25
2018-12-15T11:52:21.979Z,16.52
2018-12-15T11:54:29.869Z,16.42
2018-12-15T11:56:37.884Z,17.82
2018-12-15T11:58:42.524Z,18.50
2018-12-15T12:00:50.313Z,17.65
2018-12-15T12:02:58.213Z,18.30
2018-12-15T12:05:04.766Z,17.67
2018-12-15T12:07:12.917Z,19.62
2018-12-15T12:09:20.716Z,18.35
2018-12-15T12:11:28.896Z,18.02
2018-12-15T12:13:36.533Z,20.00
2018-12-15T12:15:44.409Z,20.05
2018-12-15T12:17:52.417Z,17.05
2018-12-15T12:20:00.360Z,23.92
2018-12-15T12:22:08.564Z,19.42
2018-12-15T12:24:16.259Z,16.93
2018-12-15T12:26:24.024Z,17.35
2018-12-15T12:28:31.824Z,16.97
2018-12-15T12:30:39.879Z,17.07
2018-12-15T12:32:44.339Z,17.37
2018-12-15T12:34:51.965Z,18.17
2018-12-15T12:36:59.822Z,16.87
2018-12-15T12:39:07.555Z,15.40
2018-12-15T12:41:15.313Z,16.82
2018-12-15T12:43:27.285Z,17.40
2018-12-15T12:45:35.142Z,16.93
2018-12-15T12:47:42.618Z,16.35
2018-12-15T12:51:54.277Z,17.50
2018-12-15T12:58:08.992Z,21.40
2018-12-15T13:02:25.763Z,26.20
2018-12-15T13:04:33.663Z,22.05
2018-12-15T13:06:41.743Z,19.90
2018-12-15T13:08:49.486Z,22.93
2018-12-15T13:10:57.374Z,21.48
2018-12-15T13:13:05.644Z,21.27
2018-12-15T13:15:10.851Z,20.08
2018-12-15T13:17:19.442Z,18.73
2018-12-15T13:19:24.757Z,17.40
2018-12-15T13:21:36.616Z,18.17
2018-12-15T13:23:44.899Z,17.37
2018-12-15T13:25:53.678Z,18.20
2018-12-15T13:28:01.522Z,19.17
2018-12-15T13:30:09.380Z,17.40
2018-12-15T13:32:17.248Z,18.20
2018-12-15T13:34:30.265Z,18.07
2018-12-15T13:36:37.900Z,17.90
2018-12-15T13:38:43.311Z,17.03
2018-12-15T13:40:51.046Z,17.92
2018-12-15T13:43:03.091Z,18.02
2018-12-15T13:45:10.882Z,17.70
2018-12-15T13:47:18.621Z,18.32
2018-12-15T13:49:26.707Z,18.12
2018-12-15T13:51:31.751Z,15.38
2018-12-15T13:53:39.345Z,17.20
2018-12-15T13:55:47.043Z,16.55
2018-12-15T13:57:56.840Z,16.27
2018-12-15T14:00:02.042Z,16.12
2018-12-15T14:08:20.822Z,14.87
2018-12-15T14:10:28.516Z,16.55
2018-12-15T14:12:36.479Z,15.45
2018-12-15T14:14:49.194Z,16.80
2018-12-15T14:16:57.086Z,15.58
2018-12-15T14:19:05.327Z,15.18
2018-12-15T14:21:13.786Z,15.85
2018-12-15T14:23:21.588Z,18.57
2018-12-15T14:25:29.649Z,16.60
2018-12-15T14:27:34.169Z,16.15
2018-12-15T14:29:42.136Z,16.65
2018-12-15T14:31:50.108Z,17.65
2018-12-15T14:33:57.860Z,18.40
2018-12-15T14:36:05.725Z,15.58
2018-12-15T14:38:17.597Z,16.57
2018-12-15T14:40:25.187Z,16.00
2018-12-15T14:42:33.036Z,18.90
2018-12-15T14:44:40.678Z,17.17
2018-12-15T14:46:48.835Z,19.55
2018-12-15T14:48:57.289Z,18.27
2018-12-15T14:51:05.900Z,16.73
2018-12-15T14:53:13.518Z,18.15
2018-12-15T14:55:22.149Z,17.73
2018-12-15T14:57:26.665Z,18.57
2018-12-15T14:59:32.377Z,16.75
2018-12-15T15:01:39.755Z,18.80
2018-12-15T15:03:51.399Z,19.27
2018-12-15T15:05:56.194Z,17.75
2018-12-15T15:10:07.624Z,18.23
2018-12-15T15:12:15.589Z,19.57
2018-12-15T15:14:23.131Z,19.12
2018-12-15T15:16:34.647Z,19.25
2018-12-15T15:18:42.255Z,17.80
2018-12-15T15:20:49.771Z,18.82
2018-12-15T15:22:57.660Z,19.40
2018-12-15T15:25:00.559Z,17.73
2018-12-15T15:27:12.963Z,19.77
2018-12-15T15:29:24.760Z,19.37
2018-12-15T15:31:29.551Z,19.80
2018-12-15T15:33:33.047Z,18.02
2018-12-15T15:35:40.916Z,21.15
2018-12-15T15:37:49.007Z,19.07
2018-12-15T15:39:53.888Z,18.25
2018-12-15T15:41:58.679Z,21.60
2018-12-15T15:44:06.328Z,21.20
2018-12-15T15:46:09.356Z,19.95
2018-12-15T15:48:16.928Z,19.62
2018-12-15T15:50:19.785Z,22.85
2018-12-15T15:52:24.589Z,21.17
2018-12-15T15:54:32.045Z,22.93
2018-12-15T15:56:39.797Z,22.10
2018-12-15T15:58:44.600Z,20.45
2018-12-15T16:00:52.036Z,21.23
2018-12-15T16:02:59.894Z,20.68
2018-12-15T16:05:05.644Z,20.62
2018-12-15T16:07:13.555Z,20.48
2018-12-15T16:09:18.227Z,19.98
2018-12-15T16:11:29.238Z,20.08
2018-12-15T16:13:33.686Z,19.60
2018-12-15T16:15:41.656Z,21.65
2018-12-15T16:17:46.479Z,19.55
2018-12-15T16:19:51.206Z,18.07
2018-12-15T16:22:03.095Z,21.20
2018-12-15T16:24:10.593Z,17.55
2018-12-15T16:26:18.505Z,18.67
2018-12-15T16:28:23.198Z,20.75
2018-12-15T16:30:30.905Z,19.67
2018-12-15T16:32:38.736Z,21.07
2018-12-15T16:34:46.526Z,19.00
2018-12-15T16:36:54.305Z,18.10
2018-12-15T16:39:04.174Z,21.00
2018-12-15T16:41:08.775Z,20.50
2018-12-15T16:43:16.324Z,19.82
2018-12-15T16:45:25.172Z,20.95
2018-12-15T16:47:33.369Z,19.67
2018-12-15T16:49:41.849Z,20.15
2018-12-15T16:51:53.919Z,19.40
2018-12-15T16:54:01.872Z,18.32
2018-12-15T16:56:09.976Z,20.97
2018-12-15T16:58:14.575Z,19.98
2018-12-15T17:00:22.487Z,20.40
2018-12-15T17:02:25.531Z,19.70
2018-12-15T17:04:33.486Z,19.48
2018-12-15T17:06:41.446Z,20.17
2018-12-15T17:08:49.383Z,20.45
2018-12-15T17:10:57.207Z,20.37
2018-12-15T17:13:06.003Z,20.08
2018-12-15T17:15:11.703Z,19.90
2018-12-15T17:17:19.847Z,20.32
2018-12-15T17:19:27.311Z,17.42
2018-12-15T17:21:35.040Z,21.50
2018-12-15T17:23:40.168Z,19.85
2018-12-15T17:25:45.193Z,19.25
2018-12-15T17:27:52.921Z,21.12
2018-12-15T17:30:00.810Z,21.20
2018-12-15T17:32:06.134Z,18.65
2018-12-15T17:34:10.673Z,19.15
2018-12-15T17:36:18.392Z,21.68
2018-12-15T17:38:21.550Z,20.32
2018-12-15T17:40:29.336Z,21.93
2018-12-15T17:42:37.187Z,20.95
2018-12-15T17:44:44.871Z,22.42
2018-12-15T17:46:49.873Z,20.32
2018-12-15T17:48:57.671Z,19.40
2018-12-15T17:51:06.247Z,20.20
2018-12-15T17:53:10.616Z,22.32
2018-12-15T17:55:15.454Z,19.62
2018-12-15T17:57:23.291Z,21.62
2018-12-15T17:59:31.246Z,22.80
2018-12-15T18:01:36.181Z,21.62
2018-12-15T18:03:43.994Z,22.00
2018-12-15T18:05:52.104Z,23.40
2018-12-15T18:07:59.787Z,21.97
2018-12-15T18:10:07.751Z,23.92
2018-12-15T18:12:17.276Z,22.42
2018-12-15T18:14:22.419Z,20.40
2018-12-15T18:16:30.101Z,22.98
2018-12-15T18:18:34.929Z,22.35
2018-12-15T18:20:42.377Z,21.07
2018-12-15T18:22:47.486Z,23.12
2018-12-15T18:24:56.138Z,23.83
2018-12-15T18:27:04.019Z,24.05
2018-12-15T18:29:08.864Z,23.15
2018-12-15T18:31:16.828Z,25.65
2018-12-15T18:33:21.258Z,23.30
2018-12-15T18:35:28.897Z,25.95
2018-12-15T18:37:36.907Z,24.45
2018-12-15T18:39:42.243Z,25.17
2018-12-15T18:41:49.676Z,24.67
2018-12-15T18:43:53.156Z,23.35
2018-12-15T18:45:58.301Z,22.07
2018-12-15T18:48:03.148Z,26.45
2018-12-15T18:50:08.051Z,25.12
2018-12-15T18:52:13.666Z,24.20
2018-12-15T18:54:18.189Z,22.80
2018-12-15T18:56:23.167Z,24.12
2018-12-15T18:58:30.641Z,23.95
2018-12-15T19:00:35.663Z,21.45
2018-12-15T19:02:40.522Z,21.75
2018-12-15T19:04:48.164Z,22.13
2018-12-15T19:06:55.875Z,23.22
2018-12-15T19:09:08.631Z,23.47
2018-12-15T19:11:16.311Z,24.05
2018-12-15T19:15:31.723Z,23.70
2018-12-15T19:19:40.611Z,26.10
2018-12-15T19:21:48.532Z,24.92
2018-12-15T19:23:56.409Z,23.60
2018-12-15T19:26:08.571Z,26.55
2018-12-15T19:28:16.090Z,24.70
2018-12-15T19:30:24.135Z,25.17
2018-12-15T19:32:32.123Z,25.30
2018-12-15T19:34:40.052Z,24.50
2018-12-15T19:36:47.613Z,24.70
2018-12-15T19:38:52.428Z,23.35
2018-12-15T19:41:04.639Z,25.15
2018-12-15T19:43:12.336Z,25.50
2018-12-15T19:45:20.068Z,26.50
2018-12-15T19:47:32.059Z,26.77
2018-12-15T19:49:39.851Z,24.80
2018-12-15T19:51:47.567Z,26.20
2018-12-15T19:53:55.302Z,24.43
2018-12-15T19:56:00.198Z,25.90
2018-12-15T19:58:07.936Z,25.62
2018-12-15T20:00:15.847Z,26.48
2018-12-15T20:02:20.725Z,26.45
2018-12-15T20:04:28.295Z,26.57
2018-12-15T20:06:33.218Z,26.20
2018-12-15T20:08:36.396Z,28.07
2018-12-15T20:10:41.267Z,28.12
2018-12-15T20:12:46.019Z,28.60
2018-12-15T20:14:51.105Z,26.65
2018-12-15T20:16:58.620Z,26.87
2018-12-15T20:19:06.607Z,26.90
2018-12-15T20:21:12.001Z,28.10
2018-12-15T20:23:16.723Z,30.55
2018-12-15T20:25:24.226Z,27.60
2018-12-15T20:27:36.038Z,26.50
2018-12-15T20:29:40.792Z,27.98
2018-12-15T20:31:48.596Z,27.27
2018-12-15T20:33:56.476Z,27.90
2018-12-15T20:36:10.108Z,30.05
2018-12-15T20:38:14.994Z,27.40
2018-12-15T20:40:22.687Z,27.30
2018-12-15T20:42:27.656Z,30.00
2018-12-15T20:44:30.972Z,28.67
2018-12-15T20:46:38.852Z,26.52
2018-12-15T20:48:50.933Z,27.30
2018-12-15T20:50:58.922Z,26.65
2018-12-15T20:53:02.085Z,30.55
2018-12-15T20:55:09.708Z,28.73
2018-12-15T20:57:16.885Z,26.93
2018-12-15T20:59:26.346Z,30.72
2018-12-15T21:01:33.656Z,28.87
2018-12-15T21:03:41.887Z,31.02
2018-12-15T21:05:46.572Z,31.45
2018-12-15T21:07:51.486Z,29.50
2018-12-15T21:09:59.243Z,29.12
2018-12-15T21:12:07.064Z,29.55
2018-12-15T21:14:09.996Z,29.57
2018-12-15T21:16:17.781Z,28.98
2018-12-15T21:18:25.407Z,31.25
2018-12-15T21:20:33.319Z,30.10
2018-12-15T21:22:41.045Z,29.67
2018-12-15T21:24:49.086Z,30.40
2018-12-15T21:26:56.699Z,27.07
2018-12-15T21:29:04.635Z,31.12
2018-12-15T21:31:12.563Z,30.30
2018-12-15T21:33:20.666Z,30.30
2018-12-15T21:35:28.979Z,28.38
2018-12-15T21:37:34.016Z,27.65
2018-12-15T21:39:42.444Z,29.92
2018-12-15T21:41:47.452Z,29.50
2018-12-15T21:43:56.940Z,29.30
2018-12-15T21:46:04.703Z,29.82
2018-12-15T21:48:07.809Z,30.90
2018-12-15T21:50:15.840Z,30.15
2018-12-15T21:52:23.422Z,29.57
2018-12-15T21:54:26.293Z,32.73
2018-12-15T21:56:34.333Z,31.30
2018-12-15T21:58:41.923Z,34.73
2018-12-15T22:00:53.892Z,31.45
2018-12-15T22:02:58.983Z,28.27
2018-12-15T22:05:04.630Z,32.45
2018-12-15T22:07:12.698Z,30.23
2018-12-15T22:09:17.630Z,31.97
2018-12-15T22:11:22.346Z,29.40
2018-12-15T22:13:30.071Z,32.35
2018-12-15T22:15:37.909Z,29.42
2018-12-15T22:17:41.071Z,30.70
2018-12-15T22:19:48.793Z,30.80
2018-12-15T22:21:53.740Z,31.15
2018-12-15T22:24:01.887Z,31.42
2018-12-15T22:26:09.815Z,36.15
2018-12-15T22:28:14.887Z,30.05
2018-12-15T22:30:22.945Z,31.65
2018-12-15T22:32:35.417Z,29.98
2018-12-15T22:34:43.375Z,30.25
2018-12-15T22:36:55.456Z,31.48
2018-12-15T22:39:00.428Z,31.10
2018-12-15T22:41:08.035Z,33.00
2018-12-15T22:43:16.016Z,29.37
2018-12-15T22:45:21.322Z,31.57
2018-12-15T22:47:29.223Z,30.90
2018-12-15T22:49:34.020Z,30.97
2018-12-15T22:51:38.873Z,31.62
2018-12-15T22:53:46.737Z,32.98
2018-12-15T22:55:51.623Z,31.05
2018-12-15T22:57:59.355Z,33.70
2018-12-15T23:00:08.523Z,28.67
2018-12-15T23:02:13.173Z,33.33
2018-12-15T23:04:18.391Z,29.87
2018-12-15T23:06:21.721Z,32.30
2018-12-15T23:08:32.071Z,33.38
2018-12-15T23:10:39.733Z,31.55
2018-12-15T23:12:51.375Z,31.80
2018-12-15T23:15:04.623Z,34.27
2018-12-15T23:17:09.528Z,31.37
2018-12-15T23:19:17.505Z,31.95
2018-12-15T23:21:25.386Z,30.20
2018-12-15T23:23:40.013Z,33.98
2018-12-15T23:25:47.568Z,33.78
2018-12-15T23:27:53.256Z,32.80
2018-12-15T23:30:01.175Z,28.42
2018-12-15T23:32:09.162Z,30.17
2018-12-15T23:34:16.932Z,32.75
2018-12-15T23:36:25.171Z,32.00
2018-12-15T23:38:30.065Z,32.23
2018-12-15T23:40:34.750Z,32.08
2018-12-15T23:42:42.776Z,30.60
2018-12-15T23:44:50.702Z,32.42
2018-12-15T23:46:58.686Z,32.05
2018-12-15T23:49:03.551Z,34.53
2018-12-15T23:51:08.110Z,29.32
2018-12-15T23:53:15.800Z,32.58
2018-12-15T23:55:21.195Z,30.72
2018-12-15T23:57:26.899Z,31.75
2018-12-15T23:59:32.522Z,32.93
